Time;durP1;ratioP1;P1;durP2;ratioP2;P2;SDS_P1;SDS_P2;PMS_P1;PMS_P2;Temp;Humidity;BMP_temperature;BMP_pressure;BME280_temperature;BME280_humidity;BME280_pressure;Samples;Min_cycle;Max_cycle;Signal;HPM_P1;HPM_P2
2023/03/09 00:00:26;;;;;;;19.17;10.07;;;1.30;99.90;;;;;;5070202;28;20090;-85
2023/03/09 00:02:51;;;;;;;16.23;9.77;;;1.90;99.90;;;;;;5069101;28;20218;-84
2023/03/09 00:05:20;;;;;;;18.42;10.52;;;1.80;99.90;;;;;;5069558;28;20044;-84
2023/03/09 00:07:46;;;;;;;16.15;10.13;;;1.20;99.90;;;;;;5053063;28;20495;-85
2023/03/09 00:10:14;;;;;;;19.70;10.85;;;2.10;99.90;;;;;;5068417;28;20090;-84
2023/03/09 00:12:40;;;;;;;17.70;10.32;;;2.10;99.90;;;;;;5053707;28;20134;-84
2023/03/09 00:15:06;;;;;;;20.25;11.85;;;2.10;99.90;;;;;;5051867;28;20320;-84
2023/03/09 00:17:32;;;;;;;18.02;10.55;;;1.30;99.90;;;;;;5053235;28;20044;-84
2023/03/09 00:20:16;;;;;;;20.98;11.75;;;2.10;99.90;;;;;;5052563;28;20123;-85
2023/03/09 00:22:43;;;;;;;20.98;12.55;;;1.30;99.90;;;;;;5051966;28;20193;-84
2023/03/09 00:25:13;;;;;;;19.92;11.55;;;2.30;99.90;;;;;;5052725;28;20040;-85
2023/03/09 00:27:40;;;;;;;17.73;11.32;;;1.30;99.90;;;;;;5052667;28;20051;-84
2023/03/09 00:30:08;;;;;;;17.08;11.20;;;2.10;99.90;;;;;;5052428;28;20075;-84
2023/03/09 00:32:33;;;;;;;19.23;11.65;;;1.30;99.90;;;;;;5053034;28;20562;-85
2023/03/09 00:34:59;;;;;;;19.33;11.68;;;1.60;99.90;;;;;;5071615;28;20044;-85
2023/03/09 00:37:25;;;;;;;18.83;11.15;;;1.80;99.90;;;;;;5072486;28;20044;-84
2023/03/09 00:39:50;;;;;;;19.85;12.13;;;2.60;99.90;;;;;;5055672;28;20430;-84
2023/03/09 00:42:16;;;;;;;19.70;12.95;;;1.20;99.90;;;;;;5056081;28;20051;-84
2023/03/09 00:44:42;;;;;;;19.40;12.75;;;1.30;99.90;;;;;;5072153;28;20050;-85
2023/03/09 00:47:07;;;;;;;19.33;12.82;;;2.40;99.90;;;;;;5068639;28;20052;-85
2023/03/09 00:49:33;;;;;;;24.50;13.32;;;1.20;99.90;;;;;;5052977;28;20083;-84
2023/03/09 00:51:59;;;;;;;18.65;12.35;;;1.60;99.90;;;;;;5050939;28;20489;-85
2023/03/09 00:54:25;;;;;;;22.85;12.90;;;1.60;99.90;;;;;;5036238;28;20044;-85
2023/03/09 00:56:51;;;;;;;23.75;12.55;;;1.10;99.90;;;;;;5052390;28;20064;-84
2023/03/09 00:59:16;;;;;;;20.27;13.15;;;1.30;99.90;;;;;;5051350;28;20128;-85
2023/03/09 01:01:42;;;;;;;19.58;13.60;;;1.60;99.90;;;;;;5052205;28;20053;-85
2023/03/09 01:04:08;;;;;;;20.00;13.15;;;1.10;99.90;;;;;;5051689;28;20044;-85
2023/03/09 01:06:34;;;;;;;20.80;12.70;;;2.10;99.90;;;;;;5034721;28;20059;-84
2023/03/09 01:09:00;;;;;;;20.02;12.90;;;1.30;99.90;;;;;;5035984;28;20040;-85
2023/03/09 01:11:26;;;;;;;21.00;13.27;;;1.00;99.90;;;;;;5034334;28;20163;-85
2023/03/09 01:13:52;;;;;;;19.27;12.65;;;1.80;99.90;;;;;;5052394;28;20052;-86
2023/03/09 01:16:18;;;;;;;19.13;12.52;;;1.00;99.90;;;;;;5034980;28;20387;-84
2023/03/09 01:18:44;;;;;;;20.80;13.27;;;1.00;99.90;;;;;;5051417;28;20040;-84
2023/03/09 01:21:10;;;;;;;21.52;13.20;;;1.80;99.90;;;;;;5034802;28;20052;-84
2023/03/09 01:23:37;;;;;;;18.67;13.18;;;1.50;99.90;;;;;;5052184;28;20040;-84
2023/03/09 01:26:04;;;;;;;21.63;13.07;;;1.30;99.90;;;;;;5034533;28;20049;-85
2023/03/09 01:28:31;;;;;;;24.20;13.73;;;0.90;99.90;;;;;;5035589;28;20408;-85
2023/03/09 01:30:56;;;;;;;21.05;13.68;;;1.10;99.90;;;;;;5035389;28;20496;-84
2023/03/09 01:33:22;;;;;;;19.92;12.27;;;1.40;99.90;;;;;;5041626;28;20048;-85
2023/03/09 01:35:48;;;;;;;24.60;14.18;;;1.40;99.90;;;;;;5071143;28;20441;-85
2023/03/09 01:38:14;;;;;;;20.98;12.88;;;0.90;99.90;;;;;;5072044;28;20052;-85
2023/03/09 01:40:43;;;;;;;18.67;12.80;;;1.10;99.90;;;;;;5053880;28;20131;-84
2023/03/09 01:43:34;;;;;;;20.75;12.63;;;0.60;99.90;;;;;;5055058;28;20616;-84
2023/03/09 01:46:19;;;;;;;19.33;13.07;;;0.50;99.90;;;;;;5054334;28;20581;-85
2023/03/09 01:48:46;;;;;;;18.85;12.82;;;0.50;99.90;;;;;;5034918;28;20127;-85
2023/03/09 01:51:12;;;;;;;22.85;12.52;;;1.00;99.90;;;;;;5033954;28;20127;-85
2023/03/09 01:53:38;;;;;;;20.42;13.13;;;0.50;99.90;;;;;;5033727;28;20542;-84
2023/03/09 01:56:04;;;;;;;19.40;11.70;;;1.50;99.90;;;;;;5035006;28;20052;-85
2023/03/09 01:58:31;;;;;;;18.90;12.43;;;0.50;99.90;;;;;;5035198;28;20484;-85
2023/03/09 02:00:58;;;;;;;20.13;12.35;;;0.80;99.90;;;;;;5033554;28;20081;-85
2023/03/09 02:03:28;;;;;;;19.83;12.32;;;0.80;99.90;;;;;;5034647;28;20503;-84
2023/03/09 02:05:56;;;;;;;17.05;11.88;;;0.50;99.90;;;;;;5033396;28;20519;-85
2023/03/09 02:08:25;;;;;;;18.77;11.60;;;0.70;99.90;;;;;;5050593;28;20056;-85
2023/03/09 02:10:55;;;;;;;17.90;12.18;;;0.60;99.90;;;;;;5034071;28;20085;-85
2023/03/09 02:13:27;;;;;;;15.63;11.45;;;1.40;99.90;;;;;;5034632;28;20056;-84
2023/03/09 02:15:53;;;;;;;20.48;12.02;;;0.40;99.90;;;;;;5033469;28;20087;-85
2023/03/09 02:18:18;;;;;;;19.75;12.07;;;1.60;99.90;;;;;;5034416;28;20133;-85
2023/03/09 02:20:50;;;;;;;20.30;12.52;;;0.30;99.90;;;;;;5032798;28;20044;-85
2023/03/09 02:23:22;;;;;;;17.83;12.57;;;0.30;99.90;;;;;;5033570;28;20044;-85
2023/03/09 02:25:56;;;;;;;21.23;13.23;;;0.30;99.90;;;;;;5050815;28;20137;-84
2023/03/09 02:28:22;;;;;;;18.48;12.90;;;0.60;99.90;;;;;;5033903;28;20044;-84
2023/03/09 02:30:49;;;;;;;21.50;13.73;;;0.20;99.90;;;;;;5033254;28;20149;-84
2023/03/09 02:33:25;;;;;;;23.30;15.00;;;0.20;99.90;;;;;;5033710;28;20097;-85
2023/03/09 02:35:56;;;;;;;25.02;15.82;;;1.10;99.90;;;;;;5032448;28;20045;-84
2023/03/09 02:38:22;;;;;;;26.75;15.75;;;0.80;99.90;;;;;;5034031;28;20488;-85
2023/03/09 02:40:49;;;;;;;23.75;14.88;;;0.20;99.90;;;;;;5033869;28;20044;-85
2023/03/09 02:43:19;;;;;;;26.52;14.88;;;1.00;99.90;;;;;;5032718;28;20110;-85
2023/03/09 02:45:46;;;;;;;27.63;15.40;;;1.00;99.90;;;;;;5033651;28;20048;-85
2023/03/09 02:48:11;;;;;;;28.80;17.27;;;0.90;99.90;;;;;;5049103;28;20040;-85
2023/03/09 02:50:37;;;;;;;30.65;16.25;;;1.30;99.90;;;;;;5068913;28;20044;-84
2023/03/09 02:53:04;;;;;;;25.25;15.45;;;0.90;99.90;;;;;;5070175;28;20044;-84
2023/03/09 02:55:29;;;;;;;27.35;16.48;;;1.20;99.90;;;;;;5053634;28;20040;-84
2023/03/09 02:57:55;;;;;;;29.30;16.92;;;0.80;99.90;;;;;;5069616;28;20044;-84
2023/03/09 03:00:21;;;;;;;28.13;16.15;;;0.20;99.90;;;;;;5069645;28;20115;-85
2023/03/09 03:02:47;;;;;;;29.10;16.85;;;0.20;99.90;;;;;;5070160;28;20226;-84
2023/03/09 03:05:13;;;;;;;31.83;16.67;;;1.20;99.90;;;;;;5068006;28;20039;-85
2023/03/09 03:07:39;;;;;;;31.55;17.80;;;1.00;99.90;;;;;;5053454;28;20056;-85
2023/03/09 03:10:06;;;;;;;30.38;17.85;;;0.20;99.90;;;;;;5069907;28;20051;-85
2023/03/09 03:12:31;;;;;;;30.75;17.48;;;0.10;99.90;;;;;;5052414;28;20036;-84
2023/03/09 03:14:57;;;;;;;30.23;18.80;;;0.50;99.90;;;;;;5053836;28;20051;-84
2023/03/09 03:17:23;;;;;;;31.63;18.35;;;1.00;99.90;;;;;;5053029;28;20503;-85
2023/03/09 03:19:49;;;;;;;31.58;18.30;;;1.40;99.90;;;;;;5069164;28;20040;-84
2023/03/09 03:22:15;;;;;;;30.65;18.42;;;0.50;99.90;;;;;;5069777;28;20461;-84
2023/03/09 03:24:40;;;;;;;31.20;19.35;;;1.00;99.90;;;;;;5052832;28;20518;-84
2023/03/09 03:27:07;;;;;;;32.45;19.80;;;0.20;99.90;;;;;;5069156;28;20047;-84
2023/03/09 03:29:33;;;;;;;37.80;20.50;;;0.70;99.90;;;;;;5052820;28;20097;-83
2023/03/09 03:31:58;;;;;;;38.80;21.38;;;0.90;99.90;;;;;;5069503;28;20039;-85
2023/03/09 03:34:24;;;;;;;33.97;19.58;;;1.10;99.90;;;;;;5053414;28;20383;-85
2023/03/09 03:36:50;;;;;;;35.80;20.40;;;0.70;99.90;;;;;;5052333;28;20044;-84
2023/03/09 03:39:16;;;;;;;31.70;19.48;;;1.40;99.90;;;;;;5069034;28;20141;-84
2023/03/09 03:41:42;;;;;;;34.22;21.00;;;1.40;99.90;;;;;;5052398;28;20040;-84
2023/03/09 03:44:08;;;;;;;35.65;20.48;;;0.40;99.90;;;;;;5053050;28;20040;-84
2023/03/09 03:46:33;;;;;;;34.95;20.90;;;1.20;99.90;;;;;;5068563;28;20036;-84
2023/03/09 03:48:59;;;;;;;34.63;20.73;;;1.40;99.90;;;;;;5069760;28;20044;-84
2023/03/09 03:51:25;;;;;;;39.38;20.40;;;1.20;99.90;;;;;;5052162;28;20074;-84
2023/03/09 03:53:51;;;;;;;32.85;21.52;;;0.80;99.90;;;;;;5052259;28;20047;-84
2023/03/09 03:56:17;;;;;;;34.00;19.85;;;0.40;99.90;;;;;;5069547;28;20105;-84
2023/03/09 03:58:43;;;;;;;35.13;20.95;;;0.40;99.90;;;;;;5052881;28;20036;-84
2023/03/09 04:01:09;;;;;;;32.60;19.55;;;0.80;99.90;;;;;;5051381;28;20051;-84
2023/03/09 04:03:35;;;;;;;33.10;19.92;;;0.40;99.90;;;;;;5053158;28;20036;-85
2023/03/09 04:06:02;;;;;;;34.22;20.35;;;0.50;99.90;;;;;;5051595;28;20048;-84
2023/03/09 04:08:29;;;;;;;39.55;22.58;;;0.50;99.90;;;;;;5053348;28;20044;-83
2023/03/09 04:10:55;;;;;;;39.80;22.30;;;1.00;99.90;;;;;;5056727;28;20077;-84
2023/03/09 04:13:21;;;;;;;36.85;21.25;;;0.90;99.90;;;;;;5073225;28;20044;-84
2023/03/09 04:15:46;;;;;;;34.80;21.80;;;0.60;99.90;;;;;;5072488;28;20048;-84
2023/03/09 04:18:13;;;;;;;35.08;21.05;;;1.80;99.90;;;;;;5056645;28;20048;-84
2023/03/09 04:20:40;;;;;;;33.70;21.40;;;0.80;99.90;;;;;;5055664;28;20042;-84
2023/03/09 04:23:06;;;;;;;34.92;21.80;;;0.50;99.90;;;;;;5055866;28;20480;-84
2023/03/09 04:25:32;;;;;;;33.88;20.80;;;1.60;99.90;;;;;;5056863;28;20040;-85
2023/03/09 04:27:57;;;;;;;35.88;19.83;;;1.00;99.90;;;;;;5057221;28;20484;-85
2023/03/09 04:30:24;;;;;;;32.13;19.60;;;1.10;99.90;;;;;;5055516;28;20040;-86
2023/03/09 04:32:50;;;;;;;35.85;19.55;;;1.70;99.90;;;;;;5056853;28;20425;-84
2023/03/09 04:35:17;;;;;;;33.88;19.63;;;0.80;99.90;;;;;;5054444;28;20103;-85
2023/03/09 04:37:43;;;;;;;33.00;19.17;;;0.50;99.90;;;;;;5073063;28;20094;-85
2023/03/09 04:40:10;;;;;;;30.20;18.90;;;1.10;99.90;;;;;;5072767;28;20048;-84
2023/03/09 04:42:36;;;;;;;32.17;18.30;;;0.40;99.90;;;;;;5071700;28;20087;-85
2023/03/09 04:45:03;;;;;;;30.60;18.23;;;1.10;99.90;;;;;;5056232;28;20087;-85
2023/03/09 04:47:29;;;;;;;31.80;17.58;;;0.40;99.90;;;;;;5069493;28;20166;-84
2023/03/09 04:49:55;;;;;;;32.58;17.92;;;0.70;99.90;;;;;;5051170;28;20492;-85
2023/03/09 04:52:21;;;;;;;35.05;19.70;;;1.60;99.90;;;;;;5035917;28;20094;-84
2023/03/09 04:54:47;;;;;;;28.65;18.27;;;1.10;99.90;;;;;;5035499;28;20032;-85
2023/03/09 04:57:14;;;;;;;31.73;17.42;;;0.90;99.90;;;;;;5035324;28;20055;-85
2023/03/09 04:59:39;;;;;;;30.83;17.00;;;0.30;99.90;;;;;;5052031;28;20049;-84
2023/03/09 05:02:05;;;;;;;28.50;17.60;;;1.30;99.90;;;;;;5052473;28;20045;-84
2023/03/09 05:04:32;;;;;;;29.83;17.17;;;0.90;99.90;;;;;;5052027;28;20093;-84
2023/03/09 05:06:57;;;;;;;31.80;19.85;;;0.40;99.90;;;;;;5051621;28;20526;-84
2023/03/09 05:09:23;;;;;;;30.27;18.02;;;0.80;99.90;;;;;;5035635;28;20048;-84
2023/03/09 05:11:51;;;;;;;34.22;18.08;;;0.30;99.90;;;;;;5051279;28;20032;-84
2023/03/09 05:14:19;;;;;;;29.05;17.65;;;0.90;99.90;;;;;;5035866;28;21059;-84
2023/03/09 05:16:45;;;;;;;29.88;18.20;;;0.30;99.90;;;;;;5051669;28;20070;-84
2023/03/09 05:19:11;;;;;;;29.40;17.42;;;0.80;99.90;;;;;;5034459;28;20052;-84
2023/03/09 05:21:37;;;;;;;31.52;19.08;;;0.40;99.90;;;;;;5033244;28;20040;-84
2023/03/09 05:24:04;;;;;;;39.58;19.80;;;0.30;99.90;;;;;;5043628;28;20087;-85
2023/03/09 05:26:30;;;;;;;34.17;19.70;;;0.30;99.90;;;;;;5069119;28;20041;-84
2023/03/09 05:28:55;;;;;;;31.33;19.30;;;0.90;99.90;;;;;;5066013;28;20132;-85
2023/03/09 05:31:21;;;;;;;31.10;18.80;;;0.30;99.90;;;;;;5070560;28;20475;-84
2023/03/09 05:33:47;;;;;;;29.67;17.92;;;0.30;99.90;;;;;;5054647;28;20048;-84
2023/03/09 05:36:18;;;;;;;31.30;18.73;;;1.20;99.90;;;;;;5071011;28;20073;-84
2023/03/09 05:38:44;;;;;;;32.33;18.80;;;0.30;99.90;;;;;;5071100;28;20052;-84
2023/03/09 05:41:10;;;;;;;30.55;19.25;;;0.30;99.90;;;;;;5055034;28;20513;-84
2023/03/09 05:43:36;;;;;;;31.13;18.83;;;0.70;99.90;;;;;;5071947;28;20500;-84
2023/03/09 05:46:02;;;;;;;33.70;19.02;;;0.30;99.90;;;;;;5069147;28;20064;-84
2023/03/09 05:48:28;;;;;;;29.15;19.00;;;0.30;99.90;;;;;;5050989;28;20075;-84
2023/03/09 05:50:54;;;;;;;28.00;18.23;;;1.10;99.90;;;;;;5034138;28;20048;-83
2023/03/09 05:53:20;;;;;;;31.27;18.65;;;0.30;99.90;;;;;;5048670;28;20415;-84
2023/03/09 05:55:52;;;;;;;30.80;18.90;;;0.30;99.90;;;;;;5055207;28;20048;-85
2023/03/09 05:58:17;;;;;;;33.35;17.75;;;1.30;99.90;;;;;;5071736;28;20097;-84
2023/03/09 06:00:43;;;;;;;33.95;19.08;;;0.20;99.90;;;;;;5070741;28;20056;-84
2023/03/09 06:03:09;;;;;;;30.63;18.05;;;0.20;99.90;;;;;;5054607;28;20110;-84
2023/03/09 06:05:35;;;;;;;34.47;19.70;;;0.90;99.90;;;;;;5054138;28;20052;-84
2023/03/09 06:08:00;;;;;;;31.98;18.02;;;1.10;99.90;;;;;;5054063;28;20561;-84
2023/03/09 06:10:26;;;;;;;30.08;18.20;;;0.20;99.90;;;;;;5071456;28;20036;-83
2023/03/09 06:12:52;;;;;;;31.60;17.90;;;1.10;99.90;;;;;;5071517;28;20472;-84
2023/03/09 06:15:17;;;;;;;30.30;17.98;;;0.90;99.90;;;;;;5053373;28;20044;-84
2023/03/09 06:17:43;;;;;;;29.80;17.90;;;0.30;99.90;;;;;;5071740;28;20101;-84
2023/03/09 06:20:10;;;;;;;29.67;17.73;;;0.30;99.90;;;;;;5053590;28;20492;-84
2023/03/09 06:22:35;;;;;;;29.02;18.25;;;0.30;99.90;;;;;;5053898;28;20088;-85
2023/03/09 06:25:01;;;;;;;29.40;17.83;;;1.30;99.90;;;;;;5054472;28;20532;-84
2023/03/09 06:27:27;;;;;;;33.30;18.55;;;0.40;99.90;;;;;;5054591;28;20040;-85
2023/03/09 06:29:53;;;;;;;29.50;18.13;;;0.30;99.90;;;;;;5050125;28;20404;-84
2023/03/09 06:32:19;;;;;;;27.88;17.35;;;0.50;99.90;;;;;;5050421;28;20468;-84
2023/03/09 06:34:45;;;;;;;28.20;18.02;;;0.80;99.90;;;;;;5033191;28;20047;-84
2023/03/09 06:37:11;;;;;;;32.70;17.67;;;1.50;99.90;;;;;;5050010;28;20049;-85
2023/03/09 06:39:36;;;;;;;27.15;18.42;;;1.70;99.90;;;;;;5050777;28;20052;-84
2023/03/09 06:42:03;;;;;;;30.58;18.40;;;0.40;99.90;;;;;;5049744;28;20091;-86
2023/03/09 06:44:28;;;;;;;32.83;18.42;;;0.30;99.90;;;;;;5050941;28;20051;-85
2023/03/09 06:46:54;;;;;;;33.35;18.48;;;0.80;99.90;;;;;;5050915;28;20041;-84
2023/03/09 06:49:20;;;;;;;33.38;19.05;;;0.60;99.90;;;;;;5049992;28;20544;-86
2023/03/09 06:51:45;;;;;;;32.53;19.20;;;0.90;99.90;;;;;;5032570;28;20044;-83
2023/03/09 06:54:13;;;;;;;31.48;17.92;;;1.50;99.90;;;;;;5050317;28;20495;-85
2023/03/09 06:56:38;;;;;;;29.67;17.95;;;1.30;99.90;;;;;;5049120;28;20045;-83
2023/03/09 06:59:04;;;;;;;30.08;17.63;;;0.60;99.90;;;;;;5050615;28;20117;-84
2023/03/09 07:01:30;;;;;;;29.27;17.55;;;0.50;99.90;;;;;;5050256;28;20483;-84
2023/03/09 07:03:56;;;;;;;27.38;17.25;;;1.50;99.90;;;;;;5049306;28;20095;-85
2023/03/09 07:06:22;;;;;;;26.95;17.60;;;1.80;99.90;;;;;;5049425;28;20079;-84
2023/03/09 07:08:48;;;;;;;30.98;17.92;;;0.60;99.90;;;;;;5049879;28;20526;-85
2023/03/09 07:11:13;;;;;;;30.42;18.27;;;0.60;99.90;;;;;;5049075;28;20051;-85
2023/03/09 07:13:39;;;;;;;30.55;18.13;;;0.60;99.90;;;;;;5049782;28;20101;-85
2023/03/09 07:16:05;;;;;;;28.27;17.65;;;0.70;99.90;;;;;;5049499;28;20036;-84
2023/03/09 07:18:31;;;;;;;28.15;16.80;;;0.60;99.90;;;;;;5033111;28;20080;-84
2023/03/09 07:21:00;;;;;;;27.95;16.75;;;0.60;99.90;;;;;;5049138;28;20080;-84
2023/03/09 07:23:27;;;;;;;24.67;15.63;;;1.50;99.90;;;;;;5050265;28;20076;-85
2023/03/09 07:25:53;;;;;;;28.08;16.98;;;1.60;99.90;;;;;;5048913;28;20061;-85
2023/03/09 07:28:18;;;;;;;25.13;15.45;;;1.70;99.90;;;;;;5050086;28;20385;-85
2023/03/09 07:30:44;;;;;;;26.85;16.58;;;1.30;99.90;;;;;;5052959;28;20046;-85
2023/03/09 07:33:10;;;;;;;25.50;16.08;;;1.00;99.90;;;;;;5052302;28;20060;-84
2023/03/09 07:35:38;;;;;;;27.63;15.85;;;0.90;99.90;;;;;;5049116;28;20048;-84
2023/03/09 07:38:04;;;;;;;24.02;15.60;;;1.80;99.90;;;;;;5032245;28;20041;-84
2023/03/09 07:40:30;;;;;;;26.35;15.80;;;1.50;99.90;;;;;;5049971;28;20381;-85
2023/03/09 07:42:56;;;;;;;25.20;15.98;;;1.00;99.90;;;;;;5033413;28;20048;-85
2023/03/09 07:45:22;;;;;;;23.20;15.10;;;1.00;99.90;;;;;;5036613;28;20563;-86
2023/03/09 07:47:48;;;;;;;23.60;14.98;;;1.90;99.90;;;;;;5037384;28;20503;-86
2023/03/09 07:50:14;;;;;;;25.67;15.73;;;1.80;99.90;;;;;;5036305;28;20040;-85
2023/03/09 07:52:40;;;;;;;24.33;14.80;;;1.90;99.90;;;;;;5036564;28;20048;-85
2023/03/09 07:55:07;;;;;;;25.83;15.85;;;1.20;99.90;;;;;;5037259;28;20052;-85
2023/03/09 07:57:33;;;;;;;20.35;13.95;;;1.20;99.90;;;;;;5037267;28;20105;-86
2023/03/09 08:00:00;;;;;;;19.08;13.70;;;2.10;99.90;;;;;;5036442;28;20420;-85
2023/03/09 08:02:26;;;;;;;21.20;14.38;;;1.70;99.90;;;;;;5036895;28;20045;-85
2023/03/09 08:04:52;;;;;;;20.63;13.70;;;1.50;99.90;;;;;;5036178;28;20097;-85
2023/03/09 08:07:18;;;;;;;21.13;13.15;;;2.50;99.90;;;;;;5052390;28;20056;-84
2023/03/09 08:09:44;;;;;;;18.30;11.98;;;2.50;99.90;;;;;;5053324;28;20051;-85
2023/03/09 08:12:10;;;;;;;20.80;12.88;;;2.30;99.90;;;;;;5053308;28;20044;-85
2023/03/09 08:14:35;;;;;;;20.13;13.52;;;2.30;99.90;;;;;;5035756;28;20575;-84
2023/03/09 08:17:03;;;;;;;18.58;12.02;;;2.10;99.90;;;;;;5053172;28;20135;-85
2023/03/09 08:19:29;;;;;;;17.55;12.73;;;2.70;99.90;;;;;;5053334;28;20044;-84
2023/03/09 08:21:56;;;;;;;20.08;12.80;;;2.60;99.90;;;;;;5051398;28;20048;-84
2023/03/09 08:24:22;;;;;;;19.83;13.43;;;2.00;99.90;;;;;;5053337;28;20504;-84
2023/03/09 08:26:48;;;;;;;18.92;11.73;;;2.10;99.90;;;;;;5052981;28;20056;-85
2023/03/09 08:29:13;;;;;;;19.00;12.50;;;2.20;99.90;;;;;;5035652;28;20452;-84
2023/03/09 08:31:39;;;;;;;17.73;12.02;;;2.10;99.90;;;;;;5052274;28;20059;-83
2023/03/09 08:34:05;;;;;;;17.95;11.65;;;2.40;99.90;;;;;;5036484;28;20036;-83
2023/03/09 08:36:31;;;;;;;15.93;11.75;;;2.20;99.90;;;;;;5051624;28;20041;-84
2023/03/09 08:38:57;;;;;;;20.25;12.20;;;2.10;99.90;;;;;;5036430;28;20052;-84
2023/03/09 08:41:23;;;;;;;16.25;11.52;;;2.80;99.90;;;;;;5051873;28;20059;-84
2023/03/09 08:43:50;;;;;;;20.30;10.95;;;2.30;99.90;;;;;;5036251;28;20044;-84
2023/03/09 08:46:16;;;;;;;16.63;11.27;;;2.30;99.90;;;;;;5052650;28;20037;-85
2023/03/09 08:48:42;;;;;;;18.40;11.88;;;2.40;99.90;;;;;;5035260;28;20380;-85
2023/03/09 08:51:09;;;;;;;20.20;10.82;;;2.40;99.90;;;;;;5035584;28;20044;-84
2023/03/09 08:53:37;;;;;;;18.23;10.65;;;2.50;99.90;;;;;;5052753;28;20128;-85
2023/03/09 08:56:06;;;;;;;17.33;10.38;;;2.50;99.90;;;;;;5034481;28;20045;-85
2023/03/09 08:58:32;;;;;;;22.65;11.40;;;2.50;99.90;;;;;;5036385;28;20387;-85
2023/03/09 09:01:01;;;;;;;17.58;11.35;;;2.50;99.90;;;;;;5035814;28;20114;-85
2023/03/09 09:03:28;;;;;;;15.18;10.55;;;2.60;99.90;;;;;;5035390;28;20118;-84
2023/03/09 09:05:55;;;;;;;13.00;9.80;;;2.70;99.90;;;;;;5034639;28;20504;-85
2023/03/09 09:08:20;;;;;;;22.65;11.55;;;2.70;99.90;;;;;;5052656;28;20110;-85
2023/03/09 09:10:46;;;;;;;12.35;9.15;;;2.80;99.90;;;;;;5034730;28;20488;-84
2023/03/09 09:13:12;;;;;;;12.45;8.88;;;3.00;99.90;;;;;;5035793;28;20044;-85
2023/03/09 09:15:40;;;;;;;10.52;7.68;;;3.00;99.90;;;;;;5035592;28;20083;-84
2023/03/09 09:18:06;;;;;;;13.98;9.57;;;3.10;99.90;;;;;;5034469;28;20040;-85
2023/03/09 09:20:33;;;;;;;14.30;8.80;;;3.20;99.90;;;;;;5034797;28;20037;-84
2023/03/09 09:22:59;;;;;;;15.80;9.40;;;3.20;99.90;;;;;;5044685;28;20047;-85
2023/03/09 09:25:25;;;;;;;12.60;8.48;;;3.20;99.90;;;;;;5049898;28;20040;-85
2023/03/09 09:27:50;;;;;;;13.18;8.85;;;3.20;99.90;;;;;;5072363;28;20048;-85
2023/03/09 09:30:17;;;;;;;14.23;9.45;;;3.20;99.90;;;;;;5051524;28;20541;-84
2023/03/09 09:32:44;;;;;;;14.23;8.30;;;3.30;99.90;;;;;;5051227;28;20056;-85
2023/03/09 09:35:11;;;;;;;12.40;8.10;;;3.30;99.90;;;;;;5050892;28;20052;-85
2023/03/09 09:37:38;;;;;;;11.45;8.52;;;3.30;99.90;;;;;;5067863;28;20484;-85
2023/03/09 09:40:04;;;;;;;13.00;8.75;;;3.30;99.90;;;;;;5051111;28;20040;-85
2023/03/09 09:42:37;;;;;;;13.65;9.20;;;3.40;99.90;;;;;;5051868;28;20498;-85
2023/03/09 09:45:10;;;;;;;16.92;8.70;;;3.40;99.90;;;;;;5050717;28;20044;-85
2023/03/09 09:47:36;;;;;;;11.93;8.48;;;3.50;99.90;;;;;;5068594;28;20163;-85
2023/03/09 09:50:02;;;;;;;15.02;9.20;;;3.50;99.90;;;;;;5050214;28;20110;-84
2023/03/09 09:52:46;;;;;;;15.07;9.13;;;3.60;99.90;;;;;;5051164;28;20036;-84
2023/03/09 09:55:24;;;;;;;16.45;9.65;;;3.70;99.90;;;;;;5051307;28;20152;-85
2023/03/09 09:57:53;;;;;;;11.52;8.40;;;3.80;99.90;;;;;;5051466;28;20087;-84
2023/03/09 10:00:24;;;;;;;11.15;8.18;;;3.90;99.90;;;;;;5050152;28;20128;-84
2023/03/09 10:03:00;;;;;;;12.55;8.52;;;4.00;99.90;;;;;;5051359;28;20133;-84
2023/03/09 10:05:30;;;;;;;12.77;7.82;;;4.10;99.90;;;;;;5034275;28;20048;-85
2023/03/09 10:08:03;;;;;;;9.55;6.90;;;4.20;99.90;;;;;;5050088;28;20044;-85
2023/03/09 10:10:31;;;;;;;;;;;4.40;99.90;;;;;;5035196;28;20045;-85
2023/03/09 10:13:04;;;;;;;10.18;6.75;;;4.50;99.90;;;;;;5033754;28;20123;-85
2023/03/09 10:15:34;;;;;;;10.02;6.65;;;4.70;99.90;;;;;;5051246;28;20048;-85
2023/03/09 10:18:06;;;;;;;14.77;7.13;;;4.70;99.90;;;;;;5051233;28;20079;-85
2023/03/09 10:20:37;;;;;;;11.15;7.28;;;4.50;99.90;;;;;;5032575;28;20059;-84
2023/03/09 10:23:26;;;;;;;8.70;5.70;;;4.50;99.90;;;;;;5050943;28;20526;-84
2023/03/09 10:25:58;;;;;;;8.60;5.95;;;4.50;99.90;;;;;;5050764;28;20571;-84
2023/03/09 10:28:30;;;;;;;10.65;6.53;;;4.50;99.90;;;;;;5033519;28;20044;-84
2023/03/09 10:31:04;;;;;;;10.80;6.43;;;4.50;99.90;;;;;;5053681;28;20062;-84
2023/03/09 10:33:45;;;;;;;8.85;6.25;;;4.60;99.90;;;;;;5054402;28;20046;-85
2023/03/09 10:36:20;;;;;;;9.90;6.07;;;4.80;99.90;;;;;;5052388;28;20434;-85
2023/03/09 10:38:45;;;;;;;8.10;5.32;;;4.80;99.90;;;;;;5054074;28;20036;-84
2023/03/09 10:41:17;;;;;;;8.45;5.95;;;4.90;99.90;;;;;;5069942;28;20064;-84
2023/03/09 10:43:44;;;;;;;14.20;5.50;;;5.00;99.90;;;;;;5053900;28;20092;-84
2023/03/09 10:46:20;;;;;;;22.42;6.47;;;5.10;99.90;;;;;;5053763;28;20545;-84
2023/03/09 10:48:47;;;;;;;10.98;5.47;;;5.10;99.90;;;;;;5053330;28;20051;-84
2023/03/09 10:51:31;;;;;;;50.28;8.07;;;5.60;99.90;;;;;;5053138;28;20059;-84
2023/03/09 10:54:20;;;;;;;11.32;5.32;;;5.00;99.90;;;;;;5070266;28;20036;-84
2023/03/09 10:56:46;;;;;;;7.78;5.60;;;4.90;99.90;;;;;;5053133;28;20058;-85
2023/03/09 10:59:16;;;;;;;13.60;6.30;;;4.80;99.90;;;;;;5070385;28;20051;-85
2023/03/09 11:01:44;;;;;;;10.77;5.70;;;4.70;99.90;;;;;;5053112;28;20043;-84
2023/03/09 11:04:23;;;;;;;8.38;6.13;;;4.60;99.90;;;;;;5069688;28;20108;-82
2023/03/09 11:06:50;;;;;;;12.20;6.43;;;4.60;99.90;;;;;;5052617;28;20055;-82
2023/03/09 11:09:21;;;;;;;8.55;6.18;;;4.60;99.90;;;;;;5052288;28;20144;-82
2023/03/09 11:11:48;;;;;;;14.73;6.85;;;4.80;99.90;;;;;;5053424;28;20087;-82
2023/03/09 11:14:29;;;;;;;9.18;6.35;;;4.90;99.90;;;;;;5069857;28;20138;-82
2023/03/09 11:16:57;;;;;;;12.07;6.70;;;5.10;99.90;;;;;;5052232;28;20066;-82
2023/03/09 11:19:23;;;;;;;11.07;6.75;;;5.20;99.90;;;;;;5054004;28;20488;-82
2023/03/09 11:21:57;;;;;;;10.40;6.38;;;5.20;99.90;;;;;;5052320;28;20561;-83
2023/03/09 11:24:29;;;;;;;7.07;5.03;;;5.30;99.90;;;;;;5052516;28;20052;-83
2023/03/09 11:27:04;;;;;;;7.70;5.30;;;5.30;99.90;;;;;;5052992;28;20047;-82
2023/03/09 11:29:34;;;;;;;8.18;5.38;;;5.30;99.90;;;;;;5065199;28;20400;-84
2023/03/09 11:32:00;;;;;;;10.75;6.15;;;5.30;99.90;;;;;;5049569;28;20139;-85
2023/03/09 11:34:34;;;;;;;7.30;5.38;;;5.40;99.90;;;;;;5050020;28;20613;-84
2023/03/09 11:37:18;;;;;;;8.30;5.45;;;5.40;99.90;;;;;;5033207;28;20137;-84
2023/03/09 11:39:57;;;;;;;10.65;6.28;;;5.50;99.90;;;;;;5033209;28;20036;-83
2023/03/09 11:42:35;;;;;;;11.25;6.28;;;5.60;99.90;;;;;;5033161;28;20056;-83
2023/03/09 11:45:04;;;;;;;11.68;6.18;;;5.60;99.90;;;;;;5048783;28;20412;-84
2023/03/09 11:47:34;;;;;;;8.48;6.00;;;5.60;99.90;;;;;;5049859;28;20369;-84
2023/03/09 11:50:13;;;;;;;8.02;5.75;;;5.60;99.90;;;;;;5049292;28;20182;-84
2023/03/09 11:52:46;;;;;;;11.15;5.93;;;5.50;99.90;;;;;;5032668;28;20044;-84
2023/03/09 11:55:14;;;;;;;;;;;5.50;99.90;;;;;;5032944;28;20488;-84
2023/03/09 11:57:42;;;;;;;8.68;4.90;;;5.50;99.90;;;;;;5033469;28;20310;-84
2023/03/09 12:00:13;;;;;;;7.30;5.60;;;5.50;99.90;;;;;;5048508;28;20048;-84
2023/03/09 12:02:56;;;;;;;8.48;6.22;;;5.50;99.90;;;;;;5033084;28;20064;-84
2023/03/09 12:05:24;;;;;;;9.85;5.68;;;5.50;99.90;;;;;;5048452;28;20044;-84
2023/03/09 12:08:06;;;;;;;7.60;5.18;;;5.60;99.90;;;;;;5032790;28;20094;-84
2023/03/09 12:10:42;;;;;;;7.68;5.13;;;5.60;99.90;;;;;;5032639;28;20138;-83
2023/03/09 12:13:19;;;;;;;9.82;5.28;;;5.60;99.90;;;;;;5032109;28;20052;-84
2023/03/09 12:15:54;;;;;;;8.60;5.97;;;5.60;99.90;;;;;;5049702;28;20488;-84
2023/03/09 12:18:27;;;;;;;7.80;5.60;;;5.60;99.90;;;;;;5033326;28;20393;-84
2023/03/09 12:20:56;;;;;;;8.63;5.57;;;5.70;99.90;;;;;;5047561;28;20048;-84
2023/03/09 12:23:35;;;;;;;8.05;6.00;;;5.70;99.90;;;;;;5033411;28;20529;-85
2023/03/09 12:26:05;;;;;;;8.38;5.72;;;5.70;99.90;;;;;;5032963;28;20044;-84
2023/03/09 12:28:31;;;;;;;8.02;5.93;;;5.70;99.90;;;;;;5049022;28;20055;-84
2023/03/09 12:30:58;;;;;;;8.73;5.90;;;5.70;99.90;;;;;;5066131;28;20523;-84
2023/03/09 12:34:00;;;;;;;10.93;6.07;;;5.70;99.90;;;;;;5035482;28;20057;-84
2023/03/09 12:36:30;;;;;;;8.02;5.47;;;5.60;99.90;;;;;;5052116;28;20374;-85
2023/03/09 12:39:21;;;;;;;10.52;5.70;;;5.60;99.90;;;;;;5036385;28;20052;-84
2023/03/09 12:42:03;;;;;;;8.77;5.88;;;5.60;99.90;;;;;;5035215;28;20490;-84
2023/03/09 12:44:47;;;;;;;11.35;5.72;;;5.50;99.90;;;;;;5053425;28;20106;-83